Time;durP1;ratioP1;P1;durP2;ratioP2;P2;SDS_P1;SDS_P2;PMS_P1;PMS_P2;Temp;Humidity;BMP_temperature;BMP_pressure;BME280_temperature;BME280_humidity;BME280_pressure;Samples;Min_cycle;Max_cycle;Signal;HPM_P1;HPM_P2
2023/03/08 00:01:12;;;;;;;16.50;11.40;;;7.60;99.90;;;;;;4952995;29;20039;-71
2023/03/08 00:03:40;;;;;;;17.58;10.73;;;8.00;99.90;;;;;;4950224;28;20369;-72
2023/03/08 00:06:11;;;;;;;16.55;10.82;;;8.10;99.90;;;;;;4954306;29;20043;-70
2023/03/08 00:08:40;;;;;;;14.55;10.82;;;8.20;99.90;;;;;;4953454;29;20054;-73
2023/03/08 00:11:09;;;;;;;12.98;10.13;;;7.70;99.90;;;;;;4936610;29;20058;-72
2023/03/08 00:13:37;;;;;;;16.40;10.70;;;7.40;99.90;;;;;;4953726;29;20035;-75
2023/03/08 00:16:07;;;;;;;16.17;10.35;;;7.20;99.90;;;;;;4953337;29;20054;-73
2023/03/08 00:18:35;;;;;;;11.50;9.57;;;7.20;99.90;;;;;;4947949;29;20500;-71
2023/03/08 00:21:09;;;;;;;16.75;11.02;;;6.90;99.90;;;;;;4924024;29;20039;-71
2023/03/08 00:23:36;;;;;;;16.65;11.05;;;7.10;99.90;;;;;;4953270;29;20479;-73
2023/03/08 00:26:03;;;;;;;21.00;11.38;;;7.00;99.90;;;;;;4953775;29;20044;-70
2023/03/08 00:28:31;;;;;;;12.90;10.05;;;7.20;99.90;;;;;;4953090;29;20035;-72
2023/03/08 00:31:03;;;;;;;14.80;10.35;;;7.20;99.90;;;;;;4930937;29;20051;-73
2023/03/08 00:33:31;;;;;;;;;;;7.50;99.90;;;;;;4948073;29;20120;-70
2023/03/08 00:36:02;;;;;;;17.85;10.38;;;7.70;99.90;;;;;;4951460;29;19922;-70
2023/03/08 00:38:34;;;;;;;14.52;10.05;;;7.70;99.90;;;;;;4951626;29;20075;-73
2023/03/08 00:41:04;;;;;;;16.83;11.35;;;7.70;99.90;;;;;;4949990;29;20126;-72
2023/03/08 00:43:32;;;;;;;13.85;10.65;;;7.80;99.90;;;;;;4950891;29;20035;-74
2023/03/08 00:45:59;;;;;;;14.55;10.55;;;7.70;99.90;;;;;;4950646;29;20043;-72
2023/03/08 00:48:26;;;;;;;14.43;10.23;;;7.70;99.90;;;;;;4951452;29;20074;-70
2023/03/08 00:50:54;;;;;;;14.13;9.95;;;7.40;99.90;;;;;;4952041;29;20390;-72
2023/03/08 00:53:24;;;;;;;15.93;9.68;;;7.10;99.90;;;;;;4948885;29;20051;-73
2023/03/08 00:55:56;;;;;;;16.27;10.15;;;7.00;99.90;;;;;;4934720;29;20510;-72
2023/03/08 00:58:26;;;;;;;15.15;10.20;;;7.10;99.90;;;;;;4951192;29;20031;-72
2023/03/08 01:00:53;;;;;;;16.13;11.07;;;7.10;99.90;;;;;;4951742;29;20395;-72
2023/03/08 01:03:21;;;;;;;17.65;10.85;;;7.20;99.90;;;;;;4951236;29;20363;-72
2023/03/08 01:05:52;;;;;;;15.13;10.55;;;7.20;99.90;;;;;;4951528;29;20043;-72
2023/03/08 01:08:22;;;;;;;17.67;10.57;;;7.30;99.90;;;;;;4951269;29;20043;-70
2023/03/08 01:10:50;;;;;;;15.32;10.98;;;6.90;99.90;;;;;;4951389;29;20048;-72
2023/03/08 01:13:17;;;;;;;16.23;10.88;;;7.10;99.90;;;;;;4931583;28;20047;-72
2023/03/08 01:15:46;;;;;;;15.77;10.20;;;7.30;99.90;;;;;;4951324;29;20049;-70
2023/03/08 01:18:13;;;;;;;14.15;10.85;;;7.40;99.90;;;;;;4951274;29;20039;-73
2023/03/08 01:20:41;;;;;;;15.68;10.43;;;7.40;99.90;;;;;;4951140;29;20439;-72
2023/03/08 01:23:09;;;;;;;17.50;10.98;;;7.50;99.90;;;;;;4933480;29;20039;-72
2023/03/08 01:25:36;;;;;;;15.15;11.02;;;7.60;99.90;;;;;;4948844;29;20050;-72
2023/03/08 01:28:04;;;;;;;20.92;10.88;;;7.70;99.90;;;;;;4943445;29;20598;-72
2023/03/08 01:30:31;;;;;;;16.15;10.73;;;7.60;99.90;;;;;;4952591;29;20051;-73
2023/03/08 01:32:58;;;;;;;16.45;10.27;;;7.60;99.90;;;;;;4952605;29;20043;-70
2023/03/08 01:35:25;;;;;;;15.13;10.20;;;7.50;99.90;;;;;;4943757;29;20381;-73
2023/03/08 01:37:52;;;;;;;15.57;10.35;;;7.60;99.90;;;;;;4951864;29;20074;-70
2023/03/08 01:40:20;;;;;;;16.77;11.23;;;7.50;99.90;;;;;;4943869;29;20040;-71
2023/03/08 01:42:50;;;;;;;19.27;12.07;;;7.20;99.90;;;;;;4944837;29;20479;-72
2023/03/08 01:45:54;;;;;;;21.98;13.50;;;7.20;99.90;;;;;;4947325;29;20051;-72
2023/03/08 01:48:30;;;;;;;25.85;14.50;;;7.30;99.90;;;;;;4935412;29;20075;-71
2023/03/08 01:50:59;;;;;;;26.17;14.40;;;7.30;99.90;;;;;;4935643;29;20400;-68
2023/03/08 01:53:27;;;;;;;22.10;13.70;;;7.30;99.90;;;;;;4951866;29;20109;-71
2023/03/08 01:55:55;;;;;;;18.33;13.70;;;7.30;99.90;;;;;;4926228;29;20043;-72
2023/03/08 01:58:22;;;;;;;23.85;14.05;;;7.20;99.90;;;;;;4949593;29;20054;-72
2023/03/08 02:00:49;;;;;;;20.70;13.95;;;7.10;99.90;;;;;;4952485;29;20039;-72
2023/03/08 02:03:17;;;;;;;21.70;13.88;;;7.00;99.90;;;;;;4952154;29;20400;-71
2023/03/08 02:05:44;;;;;;;20.20;13.45;;;6.90;99.90;;;;;;4952998;29;20122;-71
2023/03/08 02:08:11;;;;;;;26.27;14.63;;;7.00;99.90;;;;;;4935561;29;20039;-73
2023/03/08 02:10:39;;;;;;;29.60;15.15;;;6.90;99.90;;;;;;4934790;29;20053;-74
2023/03/08 02:13:07;;;;;;;15.10;10.98;;;6.60;99.90;;;;;;4952067;29;20053;-72
2023/03/08 02:15:34;;;;;;;13.73;10.10;;;6.40;99.90;;;;;;4935377;29;20039;-74
2023/03/08 02:18:02;;;;;;;19.40;11.00;;;6.30;99.90;;;;;;4937878;23;20055;-73
2023/03/08 02:20:31;;;;;;;14.35;9.70;;;6.20;99.90;;;;;;4932436;29;20036;-73
2023/03/08 02:23:11;;;;;;;13.77;9.30;;;6.30;99.90;;;;;;4919975;29;20052;-73
2023/03/08 02:25:39;;;;;;;11.18;8.70;;;6.30;99.90;;;;;;4939086;29;20043;-72
2023/03/08 02:28:07;;;;;;;11.80;9.13;;;6.40;99.90;;;;;;4932947;29;20039;-72
2023/03/08 02:30:36;;;;;;;11.70;8.45;;;6.30;99.90;;;;;;4934955;29;20377;-71
2023/03/08 02:33:04;;;;;;;12.27;9.02;;;6.30;99.90;;;;;;4935856;29;20142;-73
2023/03/08 02:35:31;;;;;;;15.35;8.95;;;6.30;99.90;;;;;;4934987;29;20047;-74
2023/03/08 02:37:59;;;;;;;15.30;10.32;;;6.20;99.90;;;;;;4935664;29;20059;-73
2023/03/08 02:40:26;;;;;;;18.23;10.18;;;6.30;99.90;;;;;;4919441;29;20047;-73
2023/03/08 02:42:55;;;;;;;13.60;10.13;;;6.30;99.90;;;;;;4935473;29;20526;-73
2023/03/08 02:45:22;;;;;;;11.75;9.63;;;6.20;99.90;;;;;;4919577;29;20043;-72
2023/03/08 02:47:50;;;;;;;12.05;9.10;;;6.40;99.90;;;;;;4931120;29;20058;-74
2023/03/08 02:50:17;;;;;;;11.63;8.38;;;6.30;99.90;;;;;;4934695;29;20043;-71
2023/03/08 02:52:45;;;;;;;11.45;8.60;;;6.40;99.90;;;;;;4936178;29;20051;-73
2023/03/08 02:55:12;;;;;;;14.73;9.82;;;6.50;99.90;;;;;;4934700;29;20404;-71
2023/03/08 02:57:39;;;;;;;11.52;9.15;;;6.60;99.90;;;;;;4935127;29;20048;-73
2023/03/08 03:00:07;;;;;;;15.68;9.80;;;6.50;99.90;;;;;;4935670;29;20107;-73
2023/03/08 03:02:35;;;;;;;14.45;9.48;;;6.70;99.90;;;;;;4927508;29;20070;-71
2023/03/08 03:05:09;;;;;;;14.85;9.75;;;6.50;99.90;;;;;;4934640;29;20039;-72
2023/03/08 03:07:38;;;;;;;13.23;9.93;;;6.40;99.90;;;;;;4934544;29;20093;-71
2023/03/08 03:10:08;;;;;;;16.90;10.55;;;6.60;99.90;;;;;;4915869;29;20083;-73
2023/03/08 03:12:36;;;;;;;13.20;9.60;;;6.60;99.90;;;;;;4929956;29;20052;-72
2023/03/08 03:15:05;;;;;;;13.77;10.40;;;6.50;99.90;;;;;;4934698;29;20047;-71
2023/03/08 03:17:33;;;;;;;17.60;11.53;;;6.60;99.90;;;;;;4947784;29;20044;-71
2023/03/08 03:20:00;;;;;;;13.68;10.38;;;6.70;99.90;;;;;;4937653;29;20480;-70
2023/03/08 03:22:28;;;;;;;16.65;10.68;;;6.60;99.90;;;;;;4937667;29;20055;-74
2023/03/08 03:24:55;;;;;;;15.45;10.18;;;6.60;99.90;;;;;;4921651;29;20043;-73
2023/03/08 03:27:23;;;;;;;13.93;10.52;;;6.50;99.90;;;;;;4937584;29;20062;-73
2023/03/08 03:29:50;;;;;;;13.73;10.05;;;6.60;99.90;;;;;;4950916;29;20051;-73
2023/03/08 03:32:18;;;;;;;16.27;10.60;;;6.60;99.90;;;;;;4947344;29;20080;-73
2023/03/08 03:34:46;;;;;;;19.48;10.82;;;6.50;99.90;;;;;;4918374;29;20106;-71
2023/03/08 03:37:13;;;;;;;15.98;10.82;;;6.40;99.90;;;;;;4949224;28;20443;-73
2023/03/08 03:39:41;;;;;;;15.02;10.63;;;6.30;99.90;;;;;;4936727;29;20051;-72
2023/03/08 03:42:08;;;;;;;24.08;11.40;;;6.20;99.90;;;;;;4936910;29;20058;-73
2023/03/08 03:44:35;;;;;;;16.48;10.88;;;6.10;99.90;;;;;;4954670;29;20680;-73
2023/03/08 03:47:03;;;;;;;18.77;10.75;;;5.90;99.90;;;;;;4921912;29;20051;-73
2023/03/08 03:49:30;;;;;;;16.33;10.52;;;5.60;99.90;;;;;;4937343;29;20506;-73
2023/03/08 03:51:58;;;;;;;15.05;10.95;;;5.60;99.90;;;;;;4921963;29;20434;-74
2023/03/08 03:54:29;;;;;;;15.27;11.95;;;5.70;99.90;;;;;;4922426;29;20055;-74
2023/03/08 03:56:57;;;;;;;17.88;12.18;;;6.10;99.90;;;;;;4953836;29;20404;-70
2023/03/08 03:59:24;;;;;;;20.23;12.45;;;6.10;99.90;;;;;;4921650;29;20047;-73
2023/03/08 04:01:52;;;;;;;23.77;11.98;;;6.30;99.90;;;;;;4936937;29;20122;-73
2023/03/08 04:04:20;;;;;;;17.50;11.80;;;6.50;99.90;;;;;;4954267;29;20047;-72
2023/03/08 04:06:47;;;;;;;18.88;11.18;;;6.50;99.90;;;;;;4937054;29;20094;-73
2023/03/08 04:09:18;;;;;;;14.25;11.02;;;6.40;99.90;;;;;;4921487;29;20062;-73
2023/03/08 04:11:45;;;;;;;;;;;6.50;99.90;;;;;;4954161;29;20122;-73
2023/03/08 04:14:13;;;;;;;16.85;10.75;;;6.50;99.90;;;;;;4953341;29;19922;-73
2023/03/08 04:16:40;;;;;;;17.42;10.32;;;6.50;99.90;;;;;;4937061;29;20057;-73
2023/03/08 04:19:12;;;;;;;14.77;10.48;;;6.40;99.90;;;;;;4936522;29;20051;-73
2023/03/08 04:21:39;;;;;;;16.33;11.02;;;6.40;99.90;;;;;;4936626;29;20411;-74
2023/03/08 04:24:07;;;;;;;16.25;10.85;;;6.50;99.90;;;;;;4953670;29;20050;-73
2023/03/08 04:26:34;;;;;;;17.90;11.98;;;6.50;99.90;;;;;;4936512;29;20043;-73
2023/03/08 04:29:04;;;;;;;22.17;13.93;;;6.20;99.90;;;;;;4953497;29;20432;-72
2023/03/08 04:31:33;;;;;;;26.23;13.70;;;6.30;99.90;;;;;;4920611;29;20031;-73
2023/03/08 04:34:02;;;;;;;21.27;12.93;;;6.50;99.90;;;;;;4921323;29;20057;-70
2023/03/08 04:36:29;;;;;;;22.63;12.27;;;6.40;99.90;;;;;;4936843;29;20391;-73
2023/03/08 04:38:57;;;;;;;18.95;13.55;;;6.50;99.90;;;;;;4953293;29;20439;-72
2023/03/08 04:41:25;;;;;;;22.05;13.07;;;6.50;99.90;;;;;;4936279;29;20418;-72
2023/03/08 04:43:54;;;;;;;22.42;13.23;;;6.50;99.90;;;;;;4953304;29;20039;-72
2023/03/08 04:46:24;;;;;;;18.83;13.15;;;6.60;99.90;;;;;;4952862;29;20043;-72
2023/03/08 04:48:54;;;;;;;16.63;12.57;;;6.60;99.90;;;;;;4952716;28;20047;-73
2023/03/08 04:51:24;;;;;;;18.73;12.30;;;6.30;99.90;;;;;;4920527;29;20074;-74
2023/03/08 04:53:51;;;;;;;21.30;13.18;;;6.50;99.90;;;;;;4953077;29;20490;-73
2023/03/08 04:56:19;;;;;;;21.38;12.98;;;6.50;99.90;;;;;;4953128;29;20055;-71
2023/03/08 04:58:47;;;;;;;21.33;13.63;;;6.40;99.90;;;;;;4953486;29;20039;-73
2023/03/08 05:01:21;;;;;;;21.75;13.35;;;6.20;99.90;;;;;;4920624;29;20577;-73
2023/03/08 05:03:48;;;;;;;22.80;13.43;;;6.10;99.90;;;;;;4953593;29;20047;-73
2023/03/08 05:06:17;;;;;;;28.63;13.43;;;6.20;99.90;;;;;;4923803;29;20059;-73
2023/03/08 05:08:44;;;;;;;23.60;13.40;;;6.00;99.90;;;;;;4920514;29;20057;-73
2023/03/08 05:11:25;;;;;;;23.88;13.85;;;6.10;99.90;;;;;;4932565;29;20054;-73
2023/03/08 05:13:54;;;;;;;22.02;13.05;;;5.90;99.90;;;;;;4945938;29;20043;-74
2023/03/08 05:16:23;;;;;;;19.17;13.98;;;5.90;99.90;;;;;;4952632;29;20066;-73
2023/03/08 05:18:50;;;;;;;26.10;15.40;;;5.60;99.90;;;;;;4916876;29;20052;-73
2023/03/08 05:21:20;;;;;;;28.77;16.05;;;5.70;99.90;;;;;;4939448;28;20046;-74
2023/03/08 05:23:48;;;;;;;21.90;14.57;;;5.90;99.90;;;;;;4920119;29;20396;-72
2023/03/08 05:26:19;;;;;;;21.85;14.57;;;6.00;99.90;;;;;;4952780;29;20043;-74
2023/03/08 05:28:54;;;;;;;26.90;14.82;;;5.90;99.90;;;;;;4919638;23;20056;-73
2023/03/08 05:31:22;;;;;;;30.45;14.18;;;5.80;99.90;;;;;;4930790;29;20055;-73
2023/03/08 05:33:50;;;;;;;28.95;17.15;;;6.00;99.90;;;;;;4933402;29;20058;-73
2023/03/08 05:36:18;;;;;;;28.10;14.95;;;6.10;99.90;;;;;;4925714;29;20035;-73
2023/03/08 05:38:46;;;;;;;25.80;17.30;;;6.30;99.90;;;;;;4918204;29;20396;-73
2023/03/08 05:41:19;;;;;;;25.83;16.45;;;6.50;99.90;;;;;;4908034;29;20126;-73
2023/03/08 05:43:48;;;;;;;28.00;16.38;;;6.60;99.90;;;;;;4912478;29;20052;-71
2023/03/08 05:46:17;;;;;;;26.33;15.32;;;6.70;99.90;;;;;;4898865;29;20135;-73
2023/03/08 05:48:45;;;;;;;28.20;16.47;;;6.70;99.90;;;;;;4915876;29;20543;-72
2023/03/08 05:51:14;;;;;;;73.28;42.03;;;6.60;99.90;;;;;;4920832;29;20624;-73
2023/03/08 05:53:44;;;;;;;140.30;75.38;;;6.80;99.90;;;;;;4905399;29;20040;-75
2023/03/08 05:56:16;;;;;;;40.53;25.63;;;6.30;99.90;;;;;;4914269;29;20477;-72
2023/03/08 05:58:44;;;;;;;138.45;79.38;;;6.20;99.90;;;;;;4902519;29;20059;-72
2023/03/08 06:01:23;;;;;;;185.85;103.00;;;6.60;99.90;;;;;;4915669;29;20052;-70
2023/03/08 06:03:55;;;;;;;49.55;33.28;;;6.90;99.90;;;;;;4917751;29;20460;-71
2023/03/08 06:06:25;;;;;;;24.25;18.17;;;7.00;99.90;;;;;;4917183;29;20067;-74
2023/03/08 06:08:55;;;;;;;20.90;16.85;;;7.00;99.90;;;;;;4917261;29;20056;-74
2023/03/08 06:11:22;;;;;;;21.77;13.70;;;7.20;99.90;;;;;;4916916;29;20040;-72
2023/03/08 06:13:50;;;;;;;22.50;13.63;;;7.10;99.90;;;;;;4913011;29;20408;-74
2023/03/08 06:16:17;;;;;;;21.13;13.48;;;7.20;99.90;;;;;;4917497;29;20036;-73
2023/03/08 06:18:45;;;;;;;19.77;12.93;;;7.40;99.90;;;;;;4917681;29;20071;-73
2023/03/08 06:21:17;;;;;;;16.83;12.65;;;7.50;99.90;;;;;;4900321;29;20036;-73
2023/03/08 06:23:46;;;;;;;28.05;13.88;;;7.40;99.90;;;;;;4920389;29;20408;-72
2023/03/08 06:26:14;;;;;;;24.35;13.63;;;7.20;99.90;;;;;;4917891;29;20118;-74
2023/03/08 06:28:42;;;;;;;20.42;13.18;;;6.90;99.90;;;;;;4898232;29;20128;-72
2023/03/08 06:31:18;;;;;;;18.67;13.55;;;7.10;99.90;;;;;;4899705;29;20488;-72
2023/03/08 06:33:45;;;;;;;36.55;16.92;;;7.30;99.90;;;;;;4917618;29;20040;-72
2023/03/08 06:36:15;;;;;;;31.90;21.38;;;7.50;99.90;;;;;;4925602;29;20048;-69
2023/03/08 06:38:43;;;;;;;41.33;28.45;;;7.10;99.90;;;;;;4915502;29;20052;-72
2023/03/08 06:41:12;;;;;;;68.90;32.63;;;7.50;99.90;;;;;;4899154;29;20544;-70
2023/03/08 06:43:40;;;;;;;50.13;26.65;;;8.10;99.90;;;;;;4898996;29;20405;-71
2023/03/08 06:46:11;;;;;;;36.85;21.25;;;8.10;99.90;;;;;;4906335;29;20052;-73
2023/03/08 06:48:40;;;;;;;27.60;17.33;;;7.60;99.90;;;;;;4898605;29;20048;-69
2023/03/08 06:51:07;;;;;;;22.15;14.75;;;7.70;99.90;;;;;;4899913;29;20056;-72
2023/03/08 06:53:35;;;;;;;26.95;14.55;;;7.60;99.90;;;;;;4913395;29;20246;-71
2023/03/08 06:56:03;;;;;;;23.23;15.13;;;7.90;99.90;;;;;;4923023;29;20056;-72
2023/03/08 06:58:31;;;;;;;26.90;14.20;;;8.30;99.90;;;;;;4903986;29;20040;-73
2023/03/08 07:00:58;;;;;;;23.63;15.50;;;8.50;99.90;;;;;;4916058;29;20051;-73
2023/03/08 07:03:26;;;;;;;24.90;14.73;;;8.70;99.90;;;;;;4907143;29;20453;-73
2023/03/08 07:06:01;;;;;;;22.15;14.25;;;8.80;99.90;;;;;;4915244;29;20515;-73
2023/03/08 07:08:28;;;;;;;24.45;15.00;;;8.80;99.90;;;;;;4902333;29;20428;-73
2023/03/08 07:10:57;;;;;;;20.95;15.48;;;8.70;99.90;;;;;;4951729;23;20054;-73
2023/03/08 07:13:28;;;;;;;23.25;15.75;;;8.90;99.90;;;;;;4937914;29;20042;-73
2023/03/08 07:15:56;;;;;;;25.90;15.50;;;8.90;99.90;;;;;;4951976;29;20035;-73
2023/03/08 07:18:24;;;;;;;26.05;15.93;;;8.60;99.90;;;;;;4953746;29;20043;-72
2023/03/08 07:20:55;;;;;;;24.02;15.05;;;8.80;99.90;;;;;;4954909;29;20045;-74
2023/03/08 07:23:23;;;;;;;24.38;15.48;;;9.10;99.90;;;;;;4921748;29;20412;-73
2023/03/08 07:25:50;;;;;;;27.73;17.02;;;9.10;99.90;;;;;;4938245;29;20112;-72
2023/03/08 07:28:18;;;;;;;24.13;15.82;;;9.20;99.90;;;;;;4937793;29;20408;-72
2023/03/08 07:30:47;;;;;;;27.50;17.15;;;8.90;99.90;;;;;;4933759;29;20066;-71
2023/03/08 07:33:16;;;;;;;25.95;16.25;;;9.00;99.90;;;;;;4953455;29;20045;-71
2023/03/08 07:35:43;;;;;;;25.38;15.57;;;9.00;99.90;;;;;;4954823;29;20043;-71
2023/03/08 07:38:11;;;;;;;21.48;15.13;;;9.00;99.90;;;;;;4945376;29;20065;-73
2023/03/08 07:40:39;;;;;;;24.08;15.15;;;9.10;99.90;;;;;;4945524;29;20495;-73
2023/03/08 07:43:06;;;;;;;22.98;14.93;;;9.20;99.90;;;;;;4954872;29;20043;-73
2023/03/08 07:45:34;;;;;;;30.70;15.40;;;9.00;99.90;;;;;;4935888;29;20043;-73
2023/03/08 07:48:01;;;;;;;25.95;15.52;;;9.10;99.90;;;;;;4954645;29;20106;-73
2023/03/08 07:50:28;;;;;;;22.95;17.00;;;9.10;99.90;;;;;;4955010;29;20035;-71
2023/03/08 07:52:55;;;;;;;24.27;15.82;;;9.20;99.90;;;;;;4954713;29;20395;-72
2023/03/08 07:55:24;;;;;;;21.52;14.70;;;9.20;99.90;;;;;;4948606;29;20035;-73
2023/03/08 07:57:51;;;;;;;21.98;15.88;;;9.10;99.90;;;;;;4948980;29;20061;-72
2023/03/08 08:00:19;;;;;;;26.50;15.13;;;9.10;99.90;;;;;;4954405;29;20397;-70
2023/03/08 08:02:47;;;;;;;26.75;15.93;;;9.00;99.90;;;;;;4954329;29;20130;-72
2023/03/08 08:05:14;;;;;;;26.75;15.00;;;9.10;99.90;;;;;;4954074;29;20039;-73
2023/03/08 08:07:44;;;;;;;23.50;14.98;;;9.10;99.90;;;;;;4954264;29;20427;-73
2023/03/08 08:10:12;;;;;;;21.23;14.35;;;9.10;99.90;;;;;;4949053;29;20109;-72
2023/03/08 08:12:39;;;;;;;25.75;15.50;;;9.30;99.90;;;;;;4951179;29;20459;-71
2023/03/08 08:15:07;;;;;;;23.30;15.05;;;9.30;99.90;;;;;;4954081;29;20381;-72
2023/03/08 08:17:34;;;;;;;23.15;14.25;;;9.40;99.90;;;;;;4937190;29;20051;-72
2023/03/08 08:20:01;;;;;;;25.60;14.68;;;9.50;99.90;;;;;;4936870;29;20059;-73
2023/03/08 08:22:33;;;;;;;18.65;14.18;;;9.50;99.90;;;;;;4921248;29;20491;-71
2023/03/08 08:25:01;;;;;;;26.02;14.73;;;9.40;99.90;;;;;;4935821;29;20032;-71
2023/03/08 08:27:28;;;;;;;25.00;14.80;;;9.20;99.90;;;;;;4937078;29;20055;-72
2023/03/08 08:29:55;;;;;;;28.35;14.95;;;9.20;99.90;;;;;;4952273;29;20039;-72
2023/03/08 08:32:22;;;;;;;25.05;15.50;;;9.20;99.90;;;;;;4954103;29;20043;-72
2023/03/08 08:34:50;;;;;;;26.98;15.90;;;9.50;99.90;;;;;;4953262;29;20118;-74
2023/03/08 08:37:17;;;;;;;21.33;14.18;;;9.60;99.90;;;;;;4953369;29;20051;-73
2023/03/08 08:39:44;;;;;;;22.00;14.27;;;9.80;99.90;;;;;;4953626;29;20047;-71
2023/03/08 08:42:11;;;;;;;23.83;15.00;;;9.70;99.90;;;;;;4953233;29;20058;-72
2023/03/08 08:44:38;;;;;;;26.30;15.70;;;9.80;99.90;;;;;;4953319;29;20071;-74
2023/03/08 08:47:05;;;;;;;24.00;15.98;;;9.90;99.90;;;;;;4953207;29;20440;-71
2023/03/08 08:49:33;;;;;;;23.65;15.57;;;10.00;99.90;;;;;;4952963;29;20043;-72
2023/03/08 08:52:00;;;;;;;23.45;13.75;;;10.20;99.90;;;;;;4935963;29;20043;-74
2023/03/08 08:54:27;;;;;;;23.70;14.88;;;10.40;99.90;;;;;;4936392;29;20067;-75
2023/03/08 08:56:55;;;;;;;24.23;14.60;;;10.40;99.90;;;;;;4935771;29;20039;-73
2023/03/08 08:59:22;;;;;;;23.77;15.48;;;10.30;99.90;;;;;;4953188;29;20070;-71
2023/03/08 09:01:49;;;;;;;25.75;14.98;;;10.30;99.90;;;;;;4952696;29;20070;-72
2023/03/08 09:04:18;;;;;;;24.60;16.58;;;10.10;99.90;;;;;;4936300;29;20137;-71
2023/03/08 09:06:46;;;;;;;25.67;16.38;;;10.00;99.90;;;;;;4953219;29;20091;-72
2023/03/08 09:09:13;;;;;;;24.52;14.75;;;10.30;99.90;;;;;;4936006;29;20182;-72
2023/03/08 09:11:40;;;;;;;26.67;14.90;;;10.70;99.90;;;;;;4952669;29;20500;-74
2023/03/08 09:14:21;;;;;;;24.98;15.10;;;10.80;99.90;;;;;;4946265;29;20058;-74
2023/03/08 09:16:48;;;;;;;23.27;16.30;;;10.90;99.90;;;;;;4936201;29;20081;-74
2023/03/08 09:19:15;;;;;;;25.88;15.50;;;11.10;99.90;;;;;;4953122;29;20051;-72
2023/03/08 09:21:43;;;;;;;23.67;15.07;;;10.90;99.90;;;;;;4951795;29;20519;-72
2023/03/08 09:24:10;;;;;;;31.23;16.63;;;10.70;99.90;;;;;;4952522;29;20047;-72
2023/03/08 09:26:38;;;;;;;26.70;17.50;;;10.50;99.90;;;;;;4951522;29;20126;-72
2023/03/08 09:29:06;;;;;;;30.58;17.83;;;10.50;99.90;;;;;;4935703;29;20050;-72
2023/03/08 09:31:36;;;;;;;30.48;16.92;;;10.30;99.90;;;;;;4951415;29;20047;-70
2023/03/08 09:34:07;;;;;;;25.13;16.67;;;10.00;99.90;;;;;;4951679;29;20071;-72
2023/03/08 09:36:38;;;;;;;24.92;16.67;;;10.10;99.90;;;;;;4935690;29;20130;-74
2023/03/08 09:39:07;;;;;;;22.45;16.05;;;10.10;99.90;;;;;;4952625;29;20038;-71
2023/03/08 09:41:46;;;;;;;26.00;16.02;;;10.30;99.90;;;;;;4952825;29;20691;-71
2023/03/08 09:44:26;;;;;;;28.25;14.80;;;10.20;99.90;;;;;;4940433;29;20777;-73
2023/03/08 09:47:12;;;;;;;30.60;16.20;;;10.30;99.90;;;;;;4940401;29;20064;-73
2023/03/08 09:49:42;;;;;;;33.83;15.40;;;10.20;99.90;;;;;;4935375;29;20043;-74
2023/03/08 09:52:32;;;;;;;26.90;15.45;;;10.30;99.90;;;;;;4952721;29;20050;-73
2023/03/08 09:55:02;;;;;;;26.40;15.00;;;10.30;99.90;;;;;;4931276;29;20039;-73
2023/03/08 09:57:35;;;;;;;27.23;14.18;;;10.00;99.90;;;;;;4950925;29;20131;-73
2023/03/08 10:00:08;;;;;;;21.38;13.60;;;10.20;99.90;;;;;;4951031;29;20511;-72
2023/03/08 10:02:51;;;;;;;22.88;14.60;;;10.40;99.90;;;;;;4932863;29;20051;-76
2023/03/08 10:05:40;;;;;;;22.88;14.30;;;10.50;99.90;;;;;;4933303;29;20507;-69
2023/03/08 10:08:23;;;;;;;20.88;12.35;;;10.50;99.90;;;;;;4934024;29;20135;-69
2023/03/08 10:10:59;;;;;;;23.38;11.82;;;10.70;99.90;;;;;;4926788;28;20048;-71
2023/03/08 10:13:32;;;;;;;25.67;13.50;;;10.60;99.90;;;;;;4939504;29;20054;-70
2023/03/08 10:16:20;;;;;;;19.00;12.63;;;10.50;99.90;;;;;;4947399;29;20388;-72
2023/03/08 10:19:09;;;;;;;19.52;11.82;;;10.50;99.90;;;;;;4950686;29;20039;-70
2023/03/08 10:21:39;;;;;;;18.90;11.25;;;10.30;99.90;;;;;;4949164;29;20519;-72
2023/03/08 10:24:25;;;;;;;20.33;10.95;;;10.50;99.90;;;;;;4911241;29;20058;-72
2023/03/08 10:27:19;;;;;;;16.95;10.95;;;10.40;99.90;;;;;;4948753;29;20044;-72
2023/03/08 10:29:52;;;;;;;14.77;10.27;;;10.50;99.90;;;;;;4949667;29;20073;-72
2023/03/08 10:32:20;;;;;;;18.75;11.70;;;10.50;99.90;;;;;;4951276;29;20380;-70
2023/03/08 10:34:48;;;;;;;18.15;12.00;;;10.40;99.90;;;;;;4941355;29;20047;-70
2023/03/08 10:37:18;;;;;;;22.92;11.32;;;10.60;99.90;;;;;;4951741;29;20047;-73
2023/03/08 10:39:53;;;;;;;20.65;10.80;;;10.70;99.90;;;;;;4949559;29;20043;-72
2023/03/08 10:42:25;;;;;;;19.90;11.65;;;11.10;99.90;;;;;;4952239;29;20498;-72
2023/03/08 10:45:19;;;;;;;19.23;10.57;;;11.40;99.90;;;;;;4941179;29;20511;-73
2023/03/08 10:47:59;;;;;;;16.67;11.02;;;11.90;99.90;;;;;;4953940;28;20046;-72
2023/03/08 10:50:34;;;;;;;15.95;9.10;;;12.30;99.90;;;;;;4955093;29;20049;-72
2023/03/08 10:53:17;;;;;;;15.38;9.15;;;12.50;99.90;;;;;;4954556;29;20047;-74
2023/03/08 10:55:51;;;;;;;17.13;8.82;;;12.70;99.90;;;;;;4954295;29;20039;-74
2023/03/08 10:58:37;;;;;;;15.57;8.40;;;12.10;99.90;;;;;;4954527;29;20051;-71
2023/03/08 11:01:21;;;;;;;11.65;7.88;;;11.90;99.90;;;;;;4935913;29;20082;-75
2023/03/08 11:04:05;;;;;;;10.63;7.15;;;12.70;99.90;;;;;;4932768;29;20048;-75
2023/03/08 11:06:36;;;;;;;11.35;7.40;;;13.50;99.90;;;;;;4949883;29;20087;-75
2023/03/08 11:09:20;;;;;;;12.38;7.18;;;14.20;99.90;;;;;;4932824;29;20034;-75
2023/03/08 11:11:48;;;;;;;12.23;7.35;;;14.50;98.10;;;;;;4922030;29;20054;-75
2023/03/08 11:14:19;;;;;;;12.20;7.40;;;14.40;98.00;;;;;;4921830;23;20047;-74
2023/03/08 11:16:57;;;;;;;11.00;6.80;;;14.30;97.70;;;;;;4916000;29;20139;-76
2023/03/08 11:19:59;;;;;;;11.95;6.63;;;16.50;93.90;;;;;;4930115;29;20519;-75
2023/03/08 11:23:06;;;;;;;11.43;5.97;;;16.30;90.70;;;;;;4914429;29;20314;-75
2023/03/08 11:25:52;;;;;;;10.48;6.55;;;16.00;90.90;;;;;;4946358;29;20054;-74
2023/03/08 11:28:46;;;;;;;8.25;5.70;;;16.40;90.00;;;;;;4916948;29;20050;-74
2023/03/08 11:31:30;;;;;;;9.15;5.68;;;15.90;90.30;;;;;;4915263;29;20043;-77
2023/03/08 11:34:45;;;;;;;9.68;6.38;;;15.70;89.70;;;;;;4932210;29;20499;-74
2023/03/08 11:37:42;;;;;;;9.70;6.45;;;15.50;91.50;;;;;;4915367;29;20051;-74
2023/03/08 11:40:29;;;;;;;11.00;7.32;;;15.30;90.90;;;;;;4932387;29;20495;-74
2023/03/08 11:43:14;;;;;;;;;;;16.00;90.10;;;;;;4902830;29;20674;-75
2023/03/08 11:45:55;;;;;;;10.80;5.45;;;16.30;87.90;;;;;;4909509;29;19947;-76
2023/03/08 11:48:58;;;;;;;10.00;5.93;;;16.40;84.80;;;;;;4920491;29;20043;-74
2023/03/08 11:52:05;;;;;;;8.98;5.53;;;15.40;86.60;;;;;;4902746;29;20048;-76
2023/03/08 11:54:41;;;;;;;10.35;5.82;;;15.50;88.40;;;;;;4891818;29;20050;-75
2023/03/08 11:57:16;;;;;;;8.02;5.05;;;15.40;88.40;;;;;;4921743;29;20046;-74
2023/03/08 11:59:46;;;;;;;10.10;4.78;;;15.20;88.40;;;;;;4907513;29;20064;-75
2023/03/08 12:02:25;;;;;;;10.27;5.53;;;15.00;88.30;;;;;;4902335;29;20195;-76
2023/03/08 12:05:21;;;;;;;10.55;5.22;;;15.00;88.00;;;;;;4905925;29;20052;-74
2023/03/08 12:08:23;;;;;;;9.55;5.95;;;15.00;87.10;;;;;;4895276;29;20206;-77
2023/03/08 12:11:01;;;;;;;10.38;5.25;;;15.00;88.50;;;;;;4876848;29;20078;-72
2023/03/08 12:13:45;;;;;;;9.85;5.60;;;15.30;87.00;;;;;;4915404;29;20059;-75
2023/03/08 12:16:23;;;;;;;11.38;5.68;;;14.90;89.00;;;;;;4914903;29;20059;-76
2023/03/08 12:19:12;;;;;;;17.63;6.15;;;14.90;88.50;;;;;;4913268;29;20047;-75
2023/03/08 12:22:32;;;;;;;10.73;6.10;;;15.50;86.60;;;;;;4909905;29;20141;-76
2023/03/08 12:25:25;;;;;;;11.65;5.00;;;17.60;82.70;;;;;;4935682;23;20054;-76
2023/03/08 12:27:59;;;;;;;9.60;5.15;;;19.50;76.40;;;;;;4923288;29;20055;-77
2023/03/08 12:30:58;;;;;;;13.73;4.55;;;23.50;63.00;;;;;;4897190;29;20714;-77
2023/03/08 12:33:31;;;;;;;7.10;4.40;;;26.10;54.20;;;;;;4904101;29;20052;-75
2023/03/08 12:36:04;;;;;;;10.63;5.75;;;24.90;52.50;;;;;;4898627;29;20469;-76
2023/03/08 12:38:41;;;;;;;8.60;3.90;;;21.70;58.30;;;;;;4919942;29;20058;-75
2023/03/08 12:41:31;;;;;;;8.00;4.47;;;19.60;61.80;;;;;;4920028;29;20059;-72
2023/03/08 12:44:06;;;;;;;9.13;4.40;;;22.50;57.80;;;;;;4916669;29;20386;-77
2023/03/08 12:46:55;;;;;;;8.43;3.55;;;20.50;58.90;;;;;;4909429;29;20047;-75
2023/03/08 12:49:34;;;;;;;6.88;3.60;;;19.40;62.10;;;;;;4925148;29;20118;-72
2023/03/08 12:52:19;;;;;;;9.43;3.78;;;23.20;54.80;;;;;;4913601;29;20040;-74
2023/03/08 12:55:30;;;;;;;8.50;3.65;;;24.00;51.90;;;;;;4899719;29;20036;-73
2023/03/08 12:58:01;;;;;;;7.50;3.75;;;21.00;55.10;;;;;;4940853;23;20045;-73
2023/03/08 13:00:37;;;;;;;9.32;3.75;;;19.20;59.50;;;;;;4934127;29;20368;-72
2023/03/08 13:03:34;;;;;;;10.20;3.78;;;17.80;63.30;;;;;;4934231;29;20379;-75